Ferry Katsuragi — JI3611 — position and weather

sailwx.info

Track history (hours):
 
Tides and Currents Weather Stations Pressure Air Temp Water Temp Dewpoint Dewpoint Depression Visibility Wind Speed Wind Dir Waves Ship Positions

Ferry Katsuragi

Last reported at 2017-Mar-23 00:13 UTC. Time now 2017-Mar-23 02:12 UTC.
Position N 34°10' E 134°57'.

Length 108 m; draft 4 m.

Type: Passenger vessel. MMSI: 431301245.

Date/timePositionNaut miles runAvg speedWind from/ knotsBaromVisibWave heightAir tempDewpointWater temp
2017-Mar-23 00:13N 34°10' E 134°57'1015.1
2017-Mar-22 23:34N 34°13' E 135°08'1 1.4
2017-Mar-22 22:33N 34°13' E 135°06'9 2.1
2017-Mar-22 18:30N 34°11' E 134°56'1111.2
2017-Mar-22 17:33N 34°13' E 135°09'0 0.0
2017-Mar-22 16:33N 34°13' E 135°09'0 0.0
2017-Mar-22 15:33N 34°13' E 135°09'7 7.2
2017-Mar-22 14:32N 34°11' E 134°60'3 0.9
2017-Mar-22 10:33N 34°12' E 135°04'4 3.9
2017-Mar-22 09:34N 34°13' E 135°08'9 2.2
2017-Mar-22 05:24N 34°11' E 134°58'911.0
2017-Mar-22 04:33N 34°13' E 135°09'8 7.3
2017-Mar-22 03:30N 34°10' E 134°60'3 1.1
2017-Mar-22 00:16N 34°09' E 134°56'1115.0
2017-Mar-21 23:33N 34°13' E 135°08'1 0.7
2017-Mar-21 22:33N 34°13' E 135°07'9 2.2
2017-Mar-21 18:26N 34°09' E 134°57'1011.6
2017-Mar-21 17:33N 34°13' E 135°09'0 0.0
2017-Mar-21 16:33N 34°13' E 135°09'0 0.0
2017-Mar-21 15:33N 34°13' E 135°09'6 6.4
2017-Mar-21 14:33N 34°11' E 135°01'5 1.4
2017-Mar-21 11:09N 34°11' E 134°56'712.2
2017-Mar-21 10:33N 34°12' E 135°04'4 3.7
2017-Mar-21 09:33N 34°13' E 135°09'8 1.8
2017-Mar-21 05:18N 34°10' E 134°60'810.5
2017-Mar-21 04:34N 34°13' E 135°09'6 5.6
2017-Mar-21 03:33N 34°11' E 135°02'7 2.0
2017-Mar-21 00:21N 34°09' E 134°55'1114.5
2017-Mar-20 23:33N 34°13' E 135°08'1 1.2
2017-Mar-20 22:34N 34°13' E 135°06'9 2.2
2017-Mar-20 18:30N 34°10' E 134°56'1111.6
2017-Mar-20 17:33N 34°13' E 135°09'0 0.0
2017-Mar-20 16:34N 34°13' E 135°09'0 0.0
2017-Mar-20 15:33N 34°13' E 135°09'7 6.8
2017-Mar-20 14:33N 34°11' E 135°01'3 0.7
2017-Mar-20 10:34N 34°12' E 135°04'4 4.2
2017-Mar-20 09:33N 34°13' E 135°09'12 3.0
2017-Mar-20 05:28N 34°09' E 134°54'1213.6
2017-Mar-20 04:33N 34°13' E 135°09'5 4.9
2017-Mar-20 03:33N 34°12' E 135°03'6 1.7
2017-Mar-20 00:12N 34°10' E 134°56'1015.8
2017-Mar-19 23:33N 34°13' E 135°08'2 2.0
2017-Mar-19 22:33N 34°13' E 135°06'8 2.0
2017-Mar-19 18:27N 34°09' E 134°57'1111.9
2017-Mar-19 17:33N 34°13' E 135°09'0 0.0
2017-Mar-19 16:33N 34°13' E 135°09'0 0.0
2017-Mar-19 15:33N 34°13' E 135°09'7 6.9
2017-Mar-19 14:34N 34°11' E 135°00'3 0.8
2017-Mar-19 10:34N 34°12' E 135°04'4 3.9
2017-Mar-19 09:33N 34°13' E 135°09'12 3.0
2017-Mar-19 05:33N 34°09' E 134°55'1212.2
2017-Mar-19 04:33N 34°13' E 135°09'11 2.5
2017-Mar-19 00:12N 34°10' E 134°56'1116.3
2017-Mar-18 23:33N 34°13' E 135°08'1 1.5
2017-Mar-18 22:33N 34°13' E 135°06'10 2.4
2017-Mar-18 18:33N 34°09' E 134°55'1211.7
2017-Mar-18 17:33N 34°13' E 135°09'0 0.0
2017-Mar-18 16:33N 34°13' E 135°09'0 0.0
2017-Mar-18 15:33N 34°13' E 135°09'6 6.5
2017-Mar-18 14:33N 34°12' E 135°01'3 0.6
2017-Mar-18 10:33N 34°12' E 135°04'4 3.9
2017-Mar-18 09:33N 34°13' E 135°09'10 2.4
2017-Mar-18 05:25N 34°10' E 134°57'1011.7
2017-Mar-18 04:34N 34°13' E 135°09'12 2.9
2017-Mar-18 00:17N 34°09' E 134°54'1216.2
2017-Mar-17 23:34N 34°13' E 135°08'2 1.8
2017-Mar-17 22:34N 34°13' E 135°06'10 2.4
2017-Mar-17 18:33N 34°09' E 134°55'1212.0
2017-Mar-17 17:34N 34°13' E 135°09'0 0.0
2017-Mar-17 16:33N 34°13' E 135°09'0 0.0
2017-Mar-17 15:33N 34°13' E 135°09'7 7.0
2017-Mar-17 14:33N 34°11' E 135°00'3 0.7
2017-Mar-17 10:33N 34°12' E 135°04'4 4.2
2017-Mar-17 09:34N 34°13' E 135°09'11 2.5
2017-Mar-17 05:26N 34°09' E 134°57'1112.1
2017-Mar-17 04:33N 34°13' E 135°09'12 2.9
2017-Mar-17 00:20N 34°08' E 134°55'1215.3
2017-Mar-16 23:34N 34°13' E 135°08'2 1.8
2017-Mar-16 22:33N 34°13' E 135°06'8 1.8
2017-Mar-16 18:22N 34°10' E 134°57'1012.1
2017-Mar-16 17:33N 34°13' E 135°09'0 0.0
2017-Mar-16 16:33N 34°13' E 135°09'0 0.0
2017-Mar-16 15:33N 34°13' E 135°09'6 6.5
2017-Mar-16 14:33N 34°11' E 135°01'5 1.4
2017-Mar-16 11:03N 34°09' E 134°56'714.9
2017-Mar-16 10:33N 34°12' E 135°04'4 4.0
2017-Mar-16 09:34N 34°13' E 135°09'8 1.7
2017-Mar-16 05:14N 34°12' E 134°60'811.2
2017-Mar-16 04:33N 34°13' E 135°09'6 6.4
2017-Mar-16 03:33N 34°10' E 135°02'5 1.6
2017-Mar-16 00:18N 34°09' E 134°55'1115.2
2017-Mar-15 23:33N 34°13' E 135°08'2 1.6
2017-Mar-15 22:34N 34°13' E 135°06'10 2.4
2017-Mar-15 18:32N 34°09' E 134°56'1111.5
2017-Mar-15 17:33N 34°13' E 135°09'0 0.0
2017-Mar-15 16:33N 34°13' E 135°09'0 0.0
2017-Mar-15 15:33N 34°13' E 135°09'6 6.2
2017-Mar-15 14:34N 34°11' E 135°01'2 0.6
2017-Mar-15 10:33N 34°12' E 135°04'4 3.9
2017-Mar-15 09:34N 34°13' E 135°09'10 2.4
2017-Mar-15 05:25N 34°10' E 134°57'1011.5
2017-Mar-15 04:33N 34°13' E 135°09'6 6.3
2017-Mar-15 03:33N 34°11' E 135°01'5 1.6
2017-Mar-15 00:18N 34°09' E 134°56'1115.2
2017-Mar-14 23:34N 34°13' E 135°08'1 1.2
2017-Mar-14 22:33N 34°13' E 135°07'10 2.6
2017-Mar-14 18:32N 34°08' E 134°55'1212.3
2017-Mar-14 17:33N 34°13' E 135°09'0 0.0
2017-Mar-14 16:33N 34°13' E 135°09'0 0.0
2017-Mar-14 15:34N 34°13' E 135°09'6 5.7
2017-Mar-14 14:33N 34°11' E 135°02'6 1.6
2017-Mar-14 11:05N 34°09' E 134°55'814.5
2017-Mar-14 10:33N 34°12' E 135°04'4 3.9
2017-Mar-14 09:34N 34°13' E 135°09'11 2.6
2017-Mar-14 05:27N 34°09' E 134°56'1112.1
2017-Mar-14 04:33N 34°13' E 135°09'7 6.7
2017-Mar-14 03:32N 34°11' E 135°01'4 1.2
2017-Mar-14 00:13N 34°10' E 134°56'1015.3
2017-Mar-13 23:33N 34°13' E 135°08'2 1.8
2017-Mar-13 22:33N 34°13' E 135°06'9 2.3
2017-Mar-13 18:30N 34°09' E 134°55'1212.4
2017-Mar-13 17:33N 34°13' E 135°09'0 0.0
2017-Mar-13 16:33N 34°13' E 135°09'0 0.0
2017-Mar-13 15:34N 34°13' E 135°09'7 6.8
2017-Mar-13 14:33N 34°11' E 135°01'3 0.7
2017-Mar-13 10:33N 34°12' E 135°04'4 4.0
2017-Mar-13 09:33N 34°13' E 135°09'10 2.5
2017-Mar-13 05:27N 34°09' E 134°57'1011.8
2017-Mar-13 04:33N 34°13' E 135°09'7 6.6
2017-Mar-13 03:33N 34°12' E 135°01'  
Track history (hours):
 
Tides and Currents Weather Stations Pressure Air Temp Water Temp Dewpoint Dewpoint Depression Visibility Wind Speed Wind Dir Waves Ship Positions

Ferry Katsuragi

Last reported at 2017-Mar-23 00:13 UTC. Time now 2017-Mar-23 02:12 UTC.
Position N 34°10' E 134°57'.

Length 108 m; draft 4 m.

Type: Passenger vessel. MMSI: 431301245.

Date/timePositionNaut miles runAvg speedWind from/ knotsBaromVisibWave heightAir tempDewpointWater temp
2017-Mar-23 00:13N 34°10' E 134°57'1015.1
2017-Mar-22 23:34N 34°13' E 135°08'1 1.4
2017-Mar-22 22:33N 34°13' E 135°06'9 2.1
2017-Mar-22 18:30N 34°11' E 134°56'1111.2
2017-Mar-22 17:33N 34°13' E 135°09'0 0.0
2017-Mar-22 16:33N 34°13' E 135°09'0 0.0
2017-Mar-22 15:33N 34°13' E 135°09'7 7.2
2017-Mar-22 14:32N 34°11' E 134°60'3 0.9
2017-Mar-22 10:33N 34°12' E 135°04'4 3.9
2017-Mar-22 09:34N 34°13' E 135°08'9 2.2
2017-Mar-22 05:24N 34°11' E 134°58'911.0
2017-Mar-22 04:33N 34°13' E 135°09'8 7.3
2017-Mar-22 03:30N 34°10' E 134°60'3 1.1
2017-Mar-22 00:16N 34°09' E 134°56'1115.0
2017-Mar-21 23:33N 34°13' E 135°08'1 0.7
2017-Mar-21 22:33N 34°13' E 135°07'9 2.2
2017-Mar-21 18:26N 34°09' E 134°57'1011.6
2017-Mar-21 17:33N 34°13' E 135°09'0 0.0
2017-Mar-21 16:33N 34°13' E 135°09'0 0.0
2017-Mar-21 15:33N 34°13' E 135°09'6 6.4
2017-Mar-21 14:33N 34°11' E 135°01'5 1.4
2017-Mar-21 11:09N 34°11' E 134°56'712.2
2017-Mar-21 10:33N 34°12' E 135°04'4 3.7
2017-Mar-21 09:33N 34°13' E 135°09'8 1.8
2017-Mar-21 05:18N 34°10' E 134°60'810.5
2017-Mar-21 04:34N 34°13' E 135°09'6 5.6
2017-Mar-21 03:33N 34°11' E 135°02'7 2.0
2017-Mar-21 00:21N 34°09' E 134°55'1114.5
2017-Mar-20 23:33N 34°13' E 135°08'1 1.2
2017-Mar-20 22:34N 34°13' E 135°06'9 2.2
2017-Mar-20 18:30N 34°10' E 134°56'1111.6
2017-Mar-20 17:33N 34°13' E 135°09'0 0.0
2017-Mar-20 16:34N 34°13' E 135°09'0 0.0
2017-Mar-20 15:33N 34°13' E 135°09'7 6.8
2017-Mar-20 14:33N 34°11' E 135°01'3 0.7
2017-Mar-20 10:34N 34°12' E 135°04'4 4.2
2017-Mar-20 09:33N 34°13' E 135°09'12 3.0
2017-Mar-20 05:28N 34°09' E 134°54'1213.6
2017-Mar-20 04:33N 34°13' E 135°09'5 4.9
2017-Mar-20 03:33N 34°12' E 135°03'6 1.7
2017-Mar-20 00:12N 34°10' E 134°56'1015.8
2017-Mar-19 23:33N 34°13' E 135°08'2 2.0
2017-Mar-19 22:33N 34°13' E 135°06'8 2.0
2017-Mar-19 18:27N 34°09' E 134°57'1111.9
2017-Mar-19 17:33N 34°13' E 135°09'0 0.0
2017-Mar-19 16:33N 34°13' E 135°09'0 0.0
2017-Mar-19 15:33N 34°13' E 135°09'7 6.9
2017-Mar-19 14:34N 34°11' E 135°00'3 0.8
2017-Mar-19 10:34N 34°12' E 135°04'4 3.9
2017-Mar-19 09:33N 34°13' E 135°09'12 3.0
2017-Mar-19 05:33N 34°09' E 134°55'1212.2
2017-Mar-19 04:33N 34°13' E 135°09'11 2.5
2017-Mar-19 00:12N 34°10' E 134°56'1116.3
2017-Mar-18 23:33N 34°13' E 135°08'1 1.5
2017-Mar-18 22:33N 34°13' E 135°06'10 2.4
2017-Mar-18 18:33N 34°09' E 134°55'1211.7
2017-Mar-18 17:33N 34°13' E 135°09'0 0.0
2017-Mar-18 16:33N 34°13' E 135°09'0 0.0
2017-Mar-18 15:33N 34°13' E 135°09'6 6.5
2017-Mar-18 14:33N 34°12' E 135°01'3 0.6
2017-Mar-18 10:33N 34°12' E 135°04'4 3.9
2017-Mar-18 09:33N 34°13' E 135°09'10 2.4
2017-Mar-18 05:25N 34°10' E 134°57'1011.7
2017-Mar-18 04:34N 34°13' E 135°09'12 2.9
2017-Mar-18 00:17N 34°09' E 134°54'1216.2
2017-Mar-17 23:34N 34°13' E 135°08'2 1.8
2017-Mar-17 22:34N 34°13' E 135°06'10 2.4
2017-Mar-17 18:33N 34°09' E 134°55'1212.0
2017-Mar-17 17:34N 34°13' E 135°09'0 0.0
2017-Mar-17 16:33N 34°13' E 135°09'0 0.0
2017-Mar-17 15:33N 34°13' E 135°09'7 7.0
2017-Mar-17 14:33N 34°11' E 135°00'3 0.7
2017-Mar-17 10:33N 34°12' E 135°04'4 4.2
2017-Mar-17 09:34N 34°13' E 135°09'11 2.5
2017-Mar-17 05:26N 34°09' E 134°57'1112.1
2017-Mar-17 04:33N 34°13' E 135°09'12 2.9
2017-Mar-17 00:20N 34°08' E 134°55'1215.3
2017-Mar-16 23:34N 34°13' E 135°08'2 1.8
2017-Mar-16 22:33N 34°13' E 135°06'8 1.8
2017-Mar-16 18:22N 34°10' E 134°57'1012.1
2017-Mar-16 17:33N 34°13' E 135°09'0 0.0
2017-Mar-16 16:33N 34°13' E 135°09'0 0.0
2017-Mar-16 15:33N 34°13' E 135°09'6 6.5
2017-Mar-16 14:33N 34°11' E 135°01'5 1.4
2017-Mar-16 11:03N 34°09' E 134°56'714.9
2017-Mar-16 10:33N 34°12' E 135°04'4 4.0
2017-Mar-16 09:34N 34°13' E 135°09'8 1.7
2017-Mar-16 05:14N 34°12' E 134°60'811.2
2017-Mar-16 04:33N 34°13' E 135°09'6 6.4
2017-Mar-16 03:33N 34°10' E 135°02'5 1.6
2017-Mar-16 00:18N 34°09' E 134°55'1115.2
2017-Mar-15 23:33N 34°13' E 135°08'2 1.6
2017-Mar-15 22:34N 34°13' E 135°06'10 2.4
2017-Mar-15 18:32N 34°09' E 134°56'1111.5
2017-Mar-15 17:33N 34°13' E 135°09'0 0.0
2017-Mar-15 16:33N 34°13' E 135°09'0 0.0
2017-Mar-15 15:33N 34°13' E 135°09'6 6.2
2017-Mar-15 14:34N 34°11' E 135°01'2 0.6
2017-Mar-15 10:33N 34°12' E 135°04'4 3.9
2017-Mar-15 09:34N 34°13' E 135°09'10 2.4
2017-Mar-15 05:25N 34°10' E 134°57'1011.5
2017-Mar-15 04:33N 34°13' E 135°09'6 6.3
2017-Mar-15 03:33N 34°11' E 135°01'5 1.6
2017-Mar-15 00:18N 34°09' E 134°56'1115.2
2017-Mar-14 23:34N 34°13' E 135°08'1 1.2
2017-Mar-14 22:33N 34°13' E 135°07'10 2.6
2017-Mar-14 18:32N 34°08' E 134°55'1212.3
2017-Mar-14 17:33N 34°13' E 135°09'0 0.0
2017-Mar-14 16:33N 34°13' E 135°09'0 0.0
2017-Mar-14 15:34N 34°13' E 135°09'6 5.7
2017-Mar-14 14:33N 34°11' E 135°02'6 1.6
2017-Mar-14 11:05N 34°09' E 134°55'814.5
2017-Mar-14 10:33N 34°12' E 135°04'4 3.9
2017-Mar-14 09:34N 34°13' E 135°09'11 2.6
2017-Mar-14 05:27N 34°09' E 134°56'1112.1
2017-Mar-14 04:33N 34°13' E 135°09'7 6.7
2017-Mar-14 03:32N 34°11' E 135°01'4 1.2
2017-Mar-14 00:13N 34°10' E 134°56'1015.3
2017-Mar-13 23:33N 34°13' E 135°08'2 1.8
2017-Mar-13 22:33N 34°13' E 135°06'9 2.3
2017-Mar-13 18:30N 34°09' E 134°55'1212.4
2017-Mar-13 17:33N 34°13' E 135°09'0 0.0
2017-Mar-13 16:33N 34°13' E 135°09'0 0.0
2017-Mar-13 15:34N 34°13' E 135°09'7 6.8
2017-Mar-13 14:33N 34°11' E 135°01'3 0.7
2017-Mar-13 10:33N 34°12' E 135°04'4 4.0
2017-Mar-13 09:33N 34°13' E 135°09'10 2.5
2017-Mar-13 05:27N 34°09' E 134°57'1011.8
2017-Mar-13 04:33N 34°13' E 135°09'7 6.6
2017-Mar-13 03:33N 34°12' E 135°01'  

Dump ship's entire track history